createdAt,value
2022-09-07T00:01:07.501Z,51444.25
2022-09-07T00:03:35.447Z,51420.41
2022-09-07T00:06:10.702Z,51408.47
2022-09-07T00:08:39.453Z,51410.44
2022-09-07T00:11:13.731Z,51420.41
2022-09-07T00:13:43.412Z,51442.25
2022-09-07T00:16:17.633Z,51402.50
2022-09-07T00:18:46.455Z,51412.44
2022-09-07T00:21:16.288Z,51430.34
2022-09-07T00:23:44.048Z,51428.34
2022-09-07T00:26:15.562Z,51400.50
2022-09-07T00:28:43.205Z,51434.31
2022-09-07T00:31:15.081Z,51410.44
2022-09-07T00:33:43.008Z,51414.44
2022-09-07T00:36:10.386Z,51416.41
2022-09-07T00:38:37.917Z,51400.50
2022-09-07T00:41:05.935Z,51410.44
2022-09-07T00:43:43.389Z,51400.50
2022-09-07T00:46:22.469Z,51410.44
2022-09-07T00:49:01.980Z,51414.44
2022-09-07T00:51:53.597Z,51456.19
2022-09-07T00:54:36.013Z,51412.44
2022-09-07T00:57:03.544Z,51408.47
2022-09-07T00:59:47.762Z,51416.41
2022-09-07T01:02:17.464Z,51450.22
2022-09-07T01:04:53.751Z,51420.41
2022-09-07T01:07:20.927Z,51400.50
2022-09-07T01:09:48.378Z,51424.38
2022-09-07T01:12:15.586Z,51396.53
2022-09-07T01:14:51.222Z,51392.56
2022-09-07T01:17:27.388Z,51408.47
2022-09-07T01:20:44.345Z,51426.34
2022-09-07T01:23:29.658Z,51434.31
2022-09-07T01:26:15.014Z,51426.34
2022-09-07T01:28:42.762Z,51420.41
2022-09-07T01:31:47.339Z,51418.41
2022-09-07T01:34:23.288Z,51444.25
2022-09-07T01:37:32.089Z,51428.34
2022-09-07T01:40:19.580Z,51400.50
2022-09-07T01:42:56.540Z,51422.38
2022-09-07T01:45:29.484Z,51420.41
2022-09-07T01:48:01.464Z,51442.25
2022-09-07T01:50:46.007Z,51424.38
2022-09-07T01:53:17.979Z,51448.22
2022-09-07T01:55:54.968Z,51432.31
2022-09-07T01:58:39.913Z,51426.34
2022-09-07T02:01:15.367Z,51454.19
2022-09-07T02:03:52.871Z,51412.44
2022-09-07T02:06:37.331Z,51426.34
2022-09-07T02:09:37.999Z,51450.22
2022-09-07T02:12:17.283Z,51408.47
2022-09-07T02:14:52.896Z,51428.34
2022-09-07T02:17:33.843Z,51410.44
2022-09-07T02:20:21.641Z,51406.47
2022-09-07T02:22:54.362Z,51436.28
2022-09-07T02:25:33.449Z,51434.31
2022-09-07T02:28:09.327Z,51440.28
2022-09-07T02:30:37.650Z,51416.41
2022-09-07T02:33:05.717Z,51452.19
2022-09-07T02:35:33.959Z,51408.47
2022-09-07T02:38:05.269Z,51412.44
2022-09-07T02:40:32.999Z,51454.19
2022-09-07T02:43:04.286Z,51436.28
2022-09-07T02:46:04.579Z,51430.34
2022-09-07T02:49:09.356Z,51388.59
2022-09-07T02:51:47.209Z,51410.44
2022-09-07T02:54:50.555Z,51414.44
2022-09-07T02:57:32.324Z,51430.34
2022-09-07T03:00:12.809Z,51420.41
2022-09-07T03:03:01.909Z,51428.34
2022-09-07T03:05:37.989Z,51430.34
2022-09-07T03:08:32.500Z,51444.25
2022-09-07T03:11:00.624Z,51396.53
2022-09-07T03:13:29.557Z,51436.28
2022-09-07T03:15:57.546Z,51420.41
2022-09-07T03:18:26.652Z,51420.41
2022-09-07T03:20:54.635Z,51438.28
2022-09-07T03:23:21.858Z,51438.28
2022-09-07T03:25:49.202Z,51420.41
2022-09-07T03:28:16.474Z,51466.13
2022-09-07T03:30:47.322Z,51432.31
2022-09-07T03:33:16.056Z,51414.44
2022-09-07T03:35:57.842Z,51426.34
2022-09-07T03:38:25.054Z,51396.53
2022-09-07T03:41:18.608Z,51446.25
2022-09-07T03:43:46.193Z,51420.41
2022-09-07T03:46:16.038Z,51414.44
2022-09-07T03:48:43.293Z,51436.28
2022-09-07T03:51:12.216Z,51440.28
2022-09-07T03:53:43.072Z,51380.63
2022-09-07T03:56:18.335Z,51414.44
2022-09-07T03:58:47.918Z,51422.38
2022-09-07T04:01:22.108Z,51418.41
2022-09-07T04:03:50.095Z,51412.44
2022-09-07T04:06:18.380Z,51428.34
2022-09-07T04:08:46.469Z,51400.50
2022-09-07T04:11:17.287Z,51426.34
2022-09-07T04:13:45.898Z,51442.25
2022-09-07T04:16:23.619Z,51474.06
2022-09-07T04:18:54.655Z,51406.47
2022-09-07T04:21:23.746Z,51406.47
2022-09-07T04:23:51.628Z,51406.47
2022-09-07T04:26:27.827Z,51426.34
2022-09-07T04:28:55.276Z,51428.34
2022-09-07T04:31:23.609Z,51426.34
2022-09-07T04:33:52.245Z,51420.41
2022-09-07T04:36:21.182Z,51428.34
2022-09-07T04:38:55.201Z,51414.44
2022-09-07T04:41:23.197Z,51426.34
2022-09-07T04:43:55.418Z,51450.22
2022-09-07T04:46:25.815Z,51424.38
2022-09-07T04:49:02.421Z,51420.41
2022-09-07T04:51:32.026Z,51430.34
2022-09-07T04:54:01.896Z,51430.34
2022-09-07T04:56:30.317Z,51420.41
2022-09-07T04:58:57.673Z,51442.25
2022-09-07T05:01:26.168Z,51452.19
2022-09-07T05:03:53.983Z,51436.28
2022-09-07T05:06:22.605Z,51448.22
2022-09-07T05:08:53.736Z,51428.34
2022-09-07T05:11:28.366Z,51434.31
2022-09-07T05:14:01.054Z,51466.13
2022-09-07T05:16:29.836Z,51434.31
2022-09-07T05:19:03.007Z,51458.16
2022-09-07T05:21:33.470Z,51472.09
2022-09-07T05:24:01.961Z,51448.22
2022-09-07T05:26:33.139Z,51450.22
2022-09-07T05:31:51.694Z,51452.19
2022-09-07T05:34:34.751Z,51436.28
2022-09-07T05:37:02.466Z,51450.22
2022-09-07T05:39:30.293Z,51432.31
2022-09-07T05:41:57.591Z,51452.19
2022-09-07T05:47:12.728Z,51472.09
2022-09-07T05:49:40.116Z,51450.22
2022-09-07T05:52:07.678Z,51462.16
2022-09-07T05:54:35.021Z,51442.25
2022-09-07T05:57:03.721Z,51470.09
2022-09-07T05:59:30.971Z,51480.03
2022-09-07T06:01:58.296Z,51482.03
2022-09-07T06:04:25.626Z,51484.00
2022-09-07T06:07:19.972Z,51480.03
2022-09-07T06:12:28.722Z,51501.91
2022-09-07T06:14:56.181Z,51493.94
2022-09-07T06:17:23.619Z,51521.78
2022-09-07T06:19:50.738Z,51472.09
2022-09-07T06:22:18.559Z,51509.84
2022-09-07T06:24:45.794Z,51505.88
2022-09-07T06:27:13.061Z,51495.94
2022-09-07T06:29:40.407Z,51478.03
2022-09-07T06:34:54.702Z,51489.97
2022-09-07T06:37:21.855Z,51507.88
2022-09-07T06:39:49.504Z,51501.91
2022-09-07T06:42:16.817Z,51489.97
2022-09-07T06:44:44.723Z,51531.72
2022-09-07T06:47:12.149Z,51501.91
2022-09-07T06:49:39.268Z,51491.97
2022-09-07T06:52:06.549Z,51505.88
2022-09-07T06:57:21.125Z,51519.81
2022-09-07T06:59:48.411Z,51549.63
2022-09-07T07:02:15.767Z,51517.81
2022-09-07T07:04:42.875Z,51529.75
2022-09-07T07:07:12.351Z,51527.75
2022-09-07T07:09:40.279Z,51559.56
2022-09-07T07:12:07.663Z,51533.72
2022-09-07T07:14:37.423Z,51531.72
2022-09-07T07:17:07.020Z,51547.63
2022-09-07T07:19:34.174Z,51543.66
2022-09-07T07:22:14.356Z,51553.59
2022-09-07T07:24:48.780Z,51553.59
2022-09-07T07:27:15.936Z,51575.47
2022-09-07T07:29:43.480Z,51571.50
2022-09-07T07:32:10.634Z,51545.66
2022-09-07T07:34:37.840Z,51571.50
2022-09-07T07:37:05.169Z,51549.63
2022-09-07T07:42:22.435Z,51575.47
2022-09-07T07:44:49.640Z,51579.44
2022-09-07T07:47:16.749Z,51563.53
2022-09-07T07:49:44.745Z,51555.59
2022-09-07T07:54:59.477Z,51603.31
2022-09-07T07:57:26.895Z,51595.34
2022-09-07T07:59:54.030Z,51611.25
2022-09-07T08:02:21.466Z,51619.22
2022-09-07T08:04:48.869Z,51603.31
2022-09-07T08:07:16.723Z,51587.41
2022-09-07T08:09:46.577Z,51631.13
2022-09-07T08:12:19.694Z,51631.13
2022-09-07T08:14:50.054Z,51623.19
2022-09-07T08:17:18.092Z,51643.06
2022-09-07T08:19:45.536Z,51609.28
2022-09-07T08:22:13.338Z,51627.16
2022-09-07T08:24:40.511Z,51635.13
2022-09-07T08:27:08.034Z,51641.09
2022-09-07T08:29:35.742Z,51643.06
2022-09-07T08:32:05.476Z,51631.13
2022-09-07T08:34:35.594Z,51653.00
2022-09-07T08:37:03.121Z,51660.97
2022-09-07T08:39:30.579Z,51666.94
2022-09-07T08:42:31.854Z,51666.94
2022-09-07T08:45:29.641Z,51678.84
2022-09-07T08:47:58.235Z,51690.78
2022-09-07T08:50:33.781Z,51662.94
2022-09-07T08:53:18.309Z,51698.75
2022-09-07T08:55:57.149Z,51696.75
2022-09-07T08:58:49.807Z,51724.59
2022-09-07T09:01:37.646Z,51706.69
2022-09-07T09:04:23.709Z,51730.56
2022-09-07T09:07:16.568Z,51778.28
2022-09-07T09:10:12.909Z,51746.47
2022-09-07T09:13:30.383Z,51752.41
2022-09-07T09:16:29.397Z,51786.22
2022-09-07T09:19:26.634Z,51774.28
2022-09-07T09:22:17.859Z,51818.03
2022-09-07T09:24:53.630Z,51804.13
2022-09-07T09:27:20.707Z,51853.81
2022-09-07T09:29:47.783Z,51849.84
2022-09-07T09:32:35.478Z,51859.78
2022-09-07T09:35:36.145Z,51907.50
2022-09-07T09:38:03.761Z,51905.53
2022-09-07T09:40:36.908Z,51939.31
2022-09-07T09:43:23.914Z,51957.22
2022-09-07T09:46:12.997Z,51961.19
2022-09-07T09:48:41.641Z,51905.53
2022-09-07T09:54:25.507Z,51893.59
2022-09-07T09:56:52.828Z,51907.50
2022-09-07T10:05:40.227Z,51961.19
2022-09-07T10:08:31.423Z,51921.44
2022-09-07T10:11:10.413Z,51909.50
2022-09-07T10:14:04.439Z,51901.56
2022-09-07T10:16:41.866Z,51897.56
2022-09-07T10:19:23.825Z,51895.59
2022-09-07T10:22:01.215Z,51905.53
2022-09-07T10:24:40.302Z,51855.81
2022-09-07T10:27:40.990Z,51889.63
2022-09-07T10:30:16.624Z,51855.81
2022-09-07T10:33:13.356Z,51857.81
2022-09-07T10:36:00.265Z,51857.81
2022-09-07T10:38:33.042Z,51859.78
2022-09-07T10:41:07.378Z,51901.56
2022-09-07T10:43:46.417Z,51879.69
2022-09-07T10:49:38.250Z,51903.53
2022-09-07T10:52:41.675Z,51981.09
2022-09-07T10:55:38.628Z,52008.94
2022-09-07T10:59:01.427Z,52012.91
2022-09-07T11:01:45.154Z,52080.50
2022-09-07T11:04:44.419Z,52104.38
2022-09-07T11:07:56.362Z,52086.47
2022-09-07T11:10:40.096Z,52090.44
2022-09-07T11:13:18.155Z,52084.50
2022-09-07T11:15:58.089Z,52068.56
2022-09-07T11:19:35.008Z,52048.69
2022-09-07T11:21:56.613Z,52044.72
2022-09-07T11:24:45.253Z,52078.53
2022-09-07T11:27:52.489Z,52088.47
2022-09-07T11:30:24.087Z,52156.06
2022-09-07T11:33:25.534Z,52116.31
2022-09-07T11:36:11.847Z,52118.28
2022-09-07T11:39:00.712Z,52118.28
2022-09-07T11:41:39.321Z,52132.22
2022-09-07T11:44:24.778Z,52144.13
2022-09-07T11:46:58.152Z,52158.06
2022-09-07T11:49:26.290Z,52148.13
2022-09-07T11:52:05.501Z,52195.84
2022-09-07T11:54:54.002Z,52343.00
2022-09-07T11:57:39.886Z,52345.00
2022-09-07T12:00:39.398Z,52358.91
2022-09-07T12:03:22.775Z,52533.91
2022-09-07T12:06:11.220Z,52693.03
2022-09-07T12:09:36.051Z,52959.53
2022-09-07T12:12:18.445Z,53321.56
2022-09-07T12:15:33.155Z,53031.16
2022-09-07T12:18:26.447Z,52786.50
2022-09-07T12:20:54.777Z,52541.88
2022-09-07T12:23:28.642Z,52350.97
2022-09-07T12:26:34.194Z,52191.88
2022-09-07T12:29:01.253Z,52074.53
2022-09-07T12:31:58.696Z,52004.94
2022-09-07T12:34:32.645Z,51963.19
2022-09-07T12:37:04.806Z,51919.44
2022-09-07T12:39:33.423Z,51883.66
2022-09-07T12:45:28.715Z,51853.81
2022-09-07T12:48:21.083Z,51845.88
2022-09-07T12:51:16.061Z,51847.88
2022-09-07T12:54:01.140Z,51786.22
2022-09-07T12:57:29.208Z,51754.41
2022-09-07T13:00:25.508Z,51786.22
2022-09-07T13:03:59.410Z,51770.31
2022-09-07T13:07:13.105Z,51746.47
2022-09-07T13:09:41.704Z,51770.31
2022-09-07T13:15:36.081Z,51786.22
2022-09-07T13:18:03.758Z,51762.38
2022-09-07T13:20:36.170Z,51744.47
2022-09-07T13:23:27.384Z,51702.72
2022-09-07T13:25:56.680Z,51730.56
2022-09-07T13:28:48.053Z,51734.53
2022-09-07T13:31:58.651Z,51766.34
2022-09-07T13:34:49.410Z,51855.81
2022-09-07T13:37:22.169Z,52102.38
2022-09-07T13:39:52.757Z,52432.50
2022-09-07T13:42:32.726Z,52245.56
2022-09-07T13:45:07.850Z,52235.63
2022-09-07T13:48:10.583Z,52185.91
2022-09-07T13:50:55.731Z,52458.34
2022-09-07T13:53:51.824Z,52700.97
2022-09-07T13:56:30.855Z,52637.34
2022-09-07T13:58:58.340Z,52844.19
2022-09-07T14:01:28.777Z,52669.16
2022-09-07T14:04:07.574Z,52581.66
2022-09-07T14:06:37.298Z,52557.78
2022-09-07T14:09:21.784Z,52402.66
2022-09-07T14:11:54.402Z,52374.81
2022-09-07T14:14:33.306Z,52430.50
2022-09-07T14:17:00.489Z,52525.97
2022-09-07T14:19:42.722Z,52418.56
2022-09-07T14:22:15.504Z,52335.03
2022-09-07T14:25:01.419Z,52235.63
2022-09-07T14:27:43.593Z,52187.88
2022-09-07T14:30:20.193Z,52197.84
2022-09-07T14:32:53.255Z,52193.84
2022-09-07T14:35:24.787Z,52183.91
2022-09-07T14:37:53.256Z,52243.56
2022-09-07T14:40:26.124Z,52704.97
2022-09-07T14:42:55.755Z,53184.31
2022-09-07T14:45:22.750Z,53663.72
2022-09-07T14:47:55.414Z,53840.78
2022-09-07T14:50:34.108Z,53566.25
2022-09-07T14:56:10.287Z,53524.47
2022-09-07T14:58:37.538Z,53743.31
2022-09-07T15:04:21.463Z,54037.75
2022-09-07T15:07:04.314Z,54065.63
2022-09-07T15:09:38.653Z,54009.91
2022-09-07T15:12:37.876Z,53992.00
2022-09-07T15:15:37.452Z,54141.22
2022-09-07T15:18:50.646Z,53604.03
2022-09-07T15:21:18.965Z,53226.06
2022-09-07T15:23:50.905Z,53162.44
2022-09-07T15:29:18.384Z,53651.78
2022-09-07T15:31:59.281Z,54033.78
2022-09-07T15:34:28.780Z,54051.69
2022-09-07T15:37:00.260Z,54059.66
2022-09-07T15:39:30.061Z,54019.84
2022-09-07T15:41:58.198Z,53870.63
2022-09-07T15:44:28.383Z,53914.41
2022-09-07T15:49:49.537Z,54001.94
2022-09-07T15:52:18.264Z,54075.56
2022-09-07T15:54:45.328Z,53993.97
2022-09-07T15:59:59.352Z,53942.25
2022-09-07T16:05:13.937Z,53922.34
2022-09-07T16:10:31.039Z,53723.41
2022-09-07T16:13:01.204Z,53464.78
2022-09-07T16:15:29.325Z,53313.59
2022-09-07T16:17:56.523Z,53188.28
2022-09-07T16:20:23.655Z,53031.16
2022-09-07T16:25:39.779Z,52350.97
2022-09-07T16:28:07.485Z,52197.84
2022-09-07T16:30:35.238Z,52142.16
2022-09-07T16:33:02.372Z,52030.78
2022-09-07T16:35:29.396Z,51969.16
2022-09-07T16:40:43.913Z,51881.66
2022-09-07T16:43:11.088Z,51843.88
2022-09-07T16:48:25.219Z,51814.06
2022-09-07T16:51:01.692Z,51758.38
2022-09-07T16:53:32.028Z,51758.38
2022-09-07T16:56:12.248Z,51776.28
2022-09-07T16:58:43.493Z,51748.44
2022-09-07T17:01:15.075Z,51754.41
2022-09-07T17:03:42.952Z,51734.53
2022-09-07T17:06:13.319Z,51738.50
2022-09-07T17:08:41.763Z,51714.66
2022-09-07T17:11:16.092Z,51732.53
2022-09-07T17:13:44.057Z,51716.63
2022-09-07T17:16:19.741Z,51702.72
2022-09-07T17:21:38.173Z,51722.59
2022-09-07T17:24:07.311Z,51670.91
2022-09-07T17:26:34.969Z,51658.97
2022-09-07T17:29:02.511Z,51676.88
2022-09-07T17:34:22.731Z,51655.00
2022-09-07T17:36:50.605Z,51656.97
2022-09-07T17:39:19.321Z,51635.13
2022-09-07T17:41:54.517Z,51655.00
2022-09-07T17:44:23.553Z,51627.16
2022-09-07T17:46:51.102Z,51613.25
2022-09-07T17:49:18.430Z,51680.84
2022-09-07T17:51:46.388Z,51641.09
2022-09-07T17:54:17.492Z,51647.03
2022-09-07T17:56:45.883Z,51647.03
2022-09-07T18:02:01.182Z,51627.16
2022-09-07T18:04:28.783Z,51643.06
2022-09-07T18:06:56.051Z,51639.09
2022-09-07T18:09:23.205Z,51655.00
2022-09-07T18:11:50.900Z,51621.19
2022-09-07T18:14:19.221Z,51617.22
2022-09-07T18:16:49.813Z,51635.13
2022-09-07T18:19:18.797Z,51595.34
2022-09-07T18:21:48.093Z,51611.25
2022-09-07T18:24:23.114Z,51617.22
2022-09-07T18:26:53.127Z,51623.19
2022-09-07T18:29:34.029Z,51591.38
2022-09-07T18:32:08.184Z,51607.28
2022-09-07T18:34:38.404Z,51625.19
2022-09-07T18:37:06.838Z,51587.41
2022-09-07T18:39:35.452Z,51599.31
2022-09-07T18:42:03.146Z,51627.16
2022-09-07T18:47:23.227Z,51587.41
2022-09-07T18:49:55.135Z,51591.38
2022-09-07T18:55:10.186Z,51585.41
2022-09-07T18:57:38.051Z,51593.38
2022-09-07T19:00:07.914Z,51589.38
2022-09-07T19:02:36.110Z,51585.41
2022-09-07T19:07:51.367Z,51555.59
2022-09-07T19:10:18.540Z,51553.59
2022-09-07T19:12:46.276Z,51571.50
2022-09-07T19:15:14.108Z,51551.63
2022-09-07T19:17:41.291Z,51549.63
2022-09-07T19:20:09.241Z,51571.50
2022-09-07T19:22:36.290Z,51579.44
2022-09-07T19:25:03.721Z,51541.66
2022-09-07T19:27:33.055Z,51551.63
2022-09-07T19:30:00.208Z,51537.69
2022-09-07T19:32:27.262Z,51569.50
2022-09-07T19:34:54.613Z,51561.56
2022-09-07T19:37:26.170Z,51549.63
2022-09-07T19:39:56.931Z,51539.69
2022-09-07T19:42:25.606Z,51517.81
2022-09-07T19:44:53.191Z,51529.75
2022-09-07T19:47:21.160Z,51539.69
2022-09-07T19:49:48.302Z,51535.69
2022-09-07T19:52:15.469Z,51525.75
2022-09-07T19:54:42.539Z,51539.69
2022-09-07T19:57:10.118Z,51539.69
2022-09-07T19:59:37.192Z,51543.66
2022-09-07T20:02:04.244Z,51549.63
2022-09-07T20:04:31.483Z,51531.72
2022-09-07T20:06:58.674Z,51525.75
2022-09-07T20:09:25.921Z,51515.81
2022-09-07T20:11:52.952Z,51523.78
2022-09-07T20:14:20.350Z,51495.94
2022-09-07T20:16:47.549Z,51519.81
2022-09-07T20:19:15.281Z,51519.81
2022-09-07T20:21:43.235Z,51509.84
2022-09-07T20:24:14.635Z,51497.94
2022-09-07T20:26:42.177Z,51517.81
2022-09-07T20:32:01.624Z,51486.00
2022-09-07T20:34:29.545Z,51507.88
2022-09-07T20:36:57.312Z,51499.91
2022-09-07T20:39:24.556Z,51503.91
2022-09-07T20:41:51.817Z,51478.03
2022-09-07T20:44:19.347Z,51484.00
2022-09-07T20:46:46.507Z,51489.97
2022-09-07T20:49:13.725Z,51488.00
2022-09-07T20:51:40.823Z,51497.94
2022-09-07T20:54:07.969Z,51495.94
2022-09-07T20:56:35.261Z,51468.09
2022-09-07T20:59:03.659Z,51486.00
2022-09-07T21:01:32.828Z,51489.97
2022-09-07T21:04:01.352Z,51466.13
2022-09-07T21:06:29.843Z,51470.09
2022-09-07T21:08:57.544Z,51476.06
2022-09-07T21:11:35.321Z,51488.00
2022-09-07T21:14:06.401Z,51507.88
2022-09-07T21:16:35.595Z,51507.88
2022-09-07T21:19:05.707Z,51497.94
2022-09-07T21:21:39.498Z,51503.91
2022-09-07T21:24:15.543Z,51478.03
2022-09-07T21:26:42.640Z,51493.94
2022-09-07T21:29:20.266Z,51489.97
2022-09-07T21:31:48.337Z,51478.03
2022-09-07T21:34:17.046Z,51454.19
2022-09-07T21:36:44.274Z,51509.84
2022-09-07T21:39:14.535Z,51489.97
2022-09-07T21:41:44.505Z,51470.09
2022-09-07T21:44:14.107Z,51464.13
2022-09-07T21:46:42.362Z,51476.06
2022-09-07T21:49:09.667Z,51460.16
2022-09-07T21:51:37.730Z,51488.00
2022-09-07T21:54:04.922Z,51462.16
2022-09-07T21:56:32.326Z,51458.16
2022-09-07T21:59:01.676Z,51460.16
2022-09-07T22:01:30.720Z,51460.16
2022-09-07T22:04:04.963Z,51446.25
2022-09-07T22:06:32.611Z,51478.03
2022-09-07T22:09:01.708Z,51488.00
2022-09-07T22:11:30.247Z,51464.13
2022-09-07T22:14:02.062Z,51472.09
2022-09-07T22:16:30.259Z,51480.03
2022-09-07T22:18:57.577Z,51464.13
2022-09-07T22:21:28.121Z,51452.19
2022-09-07T22:23:58.531Z,51456.19
2022-09-07T22:26:28.547Z,51460.16
2022-09-07T22:28:56.056Z,51466.13
2022-09-07T22:31:29.360Z,51456.19
2022-09-07T22:33:58.297Z,51482.03
2022-09-07T22:36:41.468Z,51480.03
2022-09-07T22:39:17.909Z,51456.19
2022-09-07T22:41:47.344Z,51452.19
2022-09-07T22:44:17.840Z,51452.19
2022-09-07T22:46:47.590Z,51458.16
2022-09-07T22:49:16.956Z,51460.16
2022-09-07T22:51:44.890Z,51448.22
2022-09-07T22:54:12.200Z,51456.19
2022-09-07T22:56:40.342Z,51474.06
2022-09-07T22:59:08.985Z,51462.16
2022-09-07T23:01:36.883Z,51480.03
2022-09-07T23:04:05.102Z,51448.22
2022-09-07T23:06:39.051Z,51454.19
2022-09-07T23:09:18.512Z,51442.25
2022-09-07T23:11:47.829Z,51454.19
2022-09-07T23:14:22.181Z,51474.06
2022-09-07T23:16:49.753Z,51464.13
2022-09-07T23:19:19.691Z,51468.09
2022-09-07T23:21:47.038Z,51450.22
2022-09-07T23:24:16.855Z,51454.19
2022-09-07T23:26:44.290Z,51442.25
2022-09-07T23:29:13.316Z,51444.25
2022-09-07T23:31:41.469Z,51442.25
2022-09-07T23:34:09.242Z,51489.97
2022-09-07T23:36:37.316Z,51448.22
2022-09-07T23:39:04.713Z,51452.19
2022-09-07T23:41:31.769Z,51450.22
2022-09-07T23:43:59.093Z,51452.19
2022-09-07T23:46:26.297Z,51446.25
2022-09-07T23:48:53.483Z,51466.13
2022-09-07T23:51:24.308Z,51446.25
2022-09-07T23:53:52.717Z,51462.16
2022-09-07T23:56:20.559Z,51464.13
2022-09-07T23:58:47.880Z,51440.28
